createdAt,value
2023-05-05T00:01:12.096Z,7.15
2023-05-05T00:06:14.920Z,6.07
2023-05-05T00:11:19.365Z,8.80
2023-05-05T00:16:23.300Z,8.35
2023-05-05T00:21:27.847Z,8.23
2023-05-05T00:26:31.973Z,8.52
2023-05-05T00:31:35.044Z,9.35
2023-05-05T00:36:37.892Z,8.52
2023-05-05T00:41:42.472Z,11.07
2023-05-05T00:46:45.426Z,7.28
2023-05-05T00:51:48.665Z,10.13
2023-05-05T00:56:53.397Z,7.53
2023-05-05T01:01:56.467Z,10.68
2023-05-05T01:07:14.672Z,9.15
2023-05-05T01:12:28.298Z,9.65
2023-05-05T01:17:40.024Z,12.65
2023-05-05T01:22:47.206Z,9.07
2023-05-05T01:28:01.959Z,10.52
2023-05-05T01:33:09.493Z,6.25
2023-05-05T01:38:17.407Z,9.05
2023-05-05T01:43:23.923Z,5.45
2023-05-05T01:48:29.792Z,7.68
2023-05-05T01:53:34.310Z,9.45
2023-05-05T01:58:38.595Z,7.70
2023-05-05T02:03:43.784Z,5.03
2023-05-05T02:08:48.245Z,7.95
2023-05-05T02:13:52.731Z,12.60
2023-05-05T02:19:04.583Z,9.82
2023-05-05T02:24:08.178Z,8.05
2023-05-05T02:29:17.488Z,6.90
2023-05-05T02:34:26.685Z,10.13
2023-05-05T02:39:33.979Z,5.90
2023-05-05T02:44:43.473Z,10.65
2023-05-05T02:49:49.340Z,7.55
2023-05-05T02:54:52.752Z,6.03
2023-05-05T03:00:05.834Z,6.03
2023-05-05T03:05:16.270Z,5.85
2023-05-05T03:10:26.731Z,7.90
2023-05-05T03:15:33.696Z,19.30
2023-05-05T03:20:39.991Z,8.05
2023-05-05T03:25:46.243Z,11.52
2023-05-05T03:30:57.499Z,11.75
2023-05-05T03:36:03.261Z,5.95
2023-05-05T03:41:06.318Z,7.40
2023-05-05T03:46:10.269Z,9.30
2023-05-05T03:51:15.473Z,13.00
2023-05-05T03:56:18.667Z,10.70
2023-05-05T04:01:21.626Z,7.45
2023-05-05T04:06:26.271Z,14.07
2023-05-05T04:11:29.196Z,8.20
2023-05-05T04:16:32.965Z,6.15
2023-05-05T04:21:37.663Z,10.18
2023-05-05T04:26:41.486Z,8.75
2023-05-05T04:31:44.535Z,5.97
2023-05-05T04:36:49.097Z,7.55
2023-05-05T04:41:52.679Z,7.50
2023-05-05T04:46:55.570Z,8.75
2023-05-05T04:51:59.878Z,10.93
2023-05-05T04:57:03.964Z,10.95
2023-05-05T05:02:06.961Z,7.97
2023-05-05T05:07:11.166Z,7.45
2023-05-05T05:12:14.414Z,9.70
2023-05-05T05:17:17.245Z,8.85
2023-05-05T05:22:21.473Z,5.88
2023-05-05T05:27:24.391Z,8.10
2023-05-05T05:32:29.472Z,11.10
2023-05-05T05:37:35.048Z,14.88
2023-05-05T05:42:39.996Z,8.90
2023-05-05T05:47:43.281Z,8.70
2023-05-05T05:52:48.382Z,12.00
2023-05-05T05:57:51.643Z,8.50
2023-05-05T06:02:56.052Z,7.65
2023-05-05T06:08:03.907Z,9.85
2023-05-05T06:13:09.674Z,11.93
2023-05-05T06:18:16.409Z,10.82
2023-05-05T06:23:20.770Z,9.32
2023-05-05T06:28:28.660Z,7.63
2023-05-05T06:33:31.562Z,10.15
2023-05-05T06:38:35.693Z,9.38
2023-05-05T06:43:38.592Z,9.48
2023-05-05T06:48:47.442Z,8.65
2023-05-05T06:53:51.636Z,11.77
2023-05-05T06:58:54.387Z,12.77
2023-05-05T07:03:57.257Z,16.23
2023-05-05T07:09:01.458Z,12.68
2023-05-05T07:14:04.331Z,13.95
2023-05-05T07:19:07.145Z,16.40
2023-05-05T07:24:11.304Z,13.57
2023-05-05T07:29:14.215Z,21.73
2023-05-05T07:34:17.009Z,18.00
2023-05-05T07:39:21.124Z,16.05
2023-05-05T07:44:23.901Z,13.50
2023-05-05T07:49:26.856Z,15.77
2023-05-05T07:54:30.974Z,14.52
2023-05-05T07:59:34.541Z,14.02
2023-05-05T08:04:37.330Z,17.38
2023-05-05T08:09:41.786Z,15.48
2023-05-05T08:14:44.588Z,16.25
2023-05-05T08:19:47.362Z,15.27
2023-05-05T08:24:51.533Z,17.08
2023-05-05T08:29:54.297Z,17.25
2023-05-05T08:34:57.552Z,21.38
2023-05-05T08:40:01.679Z,17.70
2023-05-05T08:45:04.852Z,18.85
2023-05-05T08:50:11.331Z,17.02
2023-05-05T08:55:21.915Z,18.33
2023-05-05T09:00:26.458Z,16.80
2023-05-05T09:05:29.421Z,20.40
2023-05-05T09:10:34.484Z,20.45
2023-05-05T09:15:38.990Z,19.83
2023-05-05T09:20:42.646Z,19.73
2023-05-05T09:25:48.832Z,18.00
2023-05-05T09:30:51.662Z,20.83
2023-05-05T09:35:56.347Z,18.73
2023-05-05T09:41:00.509Z,19.25
2023-05-05T09:46:07.750Z,24.30
2023-05-05T09:51:10.771Z,20.95
2023-05-05T09:56:15.103Z,24.77
2023-05-05T10:01:24.006Z,21.92
2023-05-05T10:06:41.118Z,24.23
2023-05-05T10:11:47.271Z,17.98
2023-05-05T10:16:51.597Z,23.00
2023-05-05T10:21:55.630Z,23.30
2023-05-05T10:27:02.515Z,21.83
2023-05-05T10:32:33.573Z,21.75
2023-05-05T10:37:34.623Z,23.67
2023-05-05T10:42:40.477Z,21.35
2023-05-05T10:47:44.351Z,22.45
2023-05-05T10:52:59.491Z,23.02
2023-05-05T10:58:03.622Z,19.30
2023-05-05T11:03:24.260Z,18.33
2023-05-05T11:08:27.866Z,19.33
2023-05-05T11:13:32.665Z,18.23
2023-05-05T11:18:37.402Z,15.77
2023-05-05T11:23:40.198Z,8.55
2023-05-05T11:28:59.065Z,8.35
2023-05-05T11:34:28.033Z,5.32
2023-05-05T11:39:42.023Z,6.00
2023-05-05T11:44:46.735Z,5.43
2023-05-05T11:49:50.610Z,7.18
2023-05-05T11:54:54.004Z,3.95
2023-05-05T12:00:00.395Z,4.80
2023-05-05T12:05:03.475Z,5.00
2023-05-05T12:10:07.878Z,3.72
2023-05-05T12:15:12.642Z,6.15
2023-05-05T12:20:15.402Z,3.38
2023-05-05T12:25:18.239Z,2.88
2023-05-05T12:30:24.116Z,4.68
2023-05-05T12:35:27.070Z,3.15
2023-05-05T12:40:47.056Z,5.05
2023-05-05T12:45:59.923Z,4.88
2023-05-05T12:51:17.240Z,8.70
2023-05-05T12:56:34.069Z,7.07
2023-05-05T13:01:49.193Z,6.63
2023-05-05T13:07:09.969Z,6.22
2023-05-05T13:12:12.749Z,4.88
2023-05-05T13:17:16.874Z,8.68
2023-05-05T13:22:19.642Z,4.53
2023-05-05T13:27:22.388Z,5.63
2023-05-05T13:32:26.577Z,3.53
2023-05-05T13:37:29.314Z,5.82
2023-05-05T13:42:32.067Z,7.30
2023-05-05T13:47:36.371Z,5.85
2023-05-05T13:52:39.451Z,7.82
2023-05-05T13:57:42.239Z,4.55
2023-05-05T14:02:46.619Z,7.15
2023-05-05T14:07:49.387Z,6.88
2023-05-05T14:12:52.812Z,4.35
2023-05-05T14:17:57.046Z,6.45
2023-05-05T14:22:59.880Z,7.75
2023-05-05T14:28:02.651Z,7.07
2023-05-05T14:33:06.870Z,5.68
2023-05-05T14:38:09.781Z,6.82
2023-05-05T14:43:12.600Z,8.07
2023-05-05T14:48:18.030Z,10.52
2023-05-05T14:53:20.770Z,8.98
2023-05-05T14:58:24.609Z,4.07
2023-05-05T15:03:28.944Z,6.75
2023-05-05T15:08:31.800Z,5.45
2023-05-05T15:13:35.390Z,2.47
2023-05-05T15:18:39.462Z,2.28
2023-05-05T15:23:42.184Z,5.50
2023-05-05T15:28:44.918Z,6.35
2023-05-05T15:33:49.908Z,6.10
2023-05-05T15:38:52.659Z,3.55
2023-05-05T15:43:55.474Z,6.35
2023-05-05T15:48:59.629Z,3.85
2023-05-05T15:54:02.451Z,4.32
2023-05-05T15:59:05.278Z,3.17
2023-05-05T16:04:09.363Z,4.45
2023-05-05T16:09:12.113Z,4.03
2023-05-05T16:14:14.857Z,9.30
2023-05-05T16:19:18.987Z,12.85
2023-05-05T16:24:22.369Z,6.78
2023-05-05T16:29:25.215Z,5.72
2023-05-05T16:34:29.291Z,6.97
2023-05-05T16:39:33.123Z,4.68
2023-05-05T16:44:35.830Z,4.65
2023-05-05T16:49:39.832Z,2.72
2023-05-05T16:54:43.446Z,4.88
2023-05-05T16:59:46.137Z,5.03
2023-05-05T17:04:50.218Z,2.50
2023-05-05T17:09:52.887Z,3.13
2023-05-05T17:14:55.544Z,6.22
2023-05-05T17:19:59.625Z,2.97
2023-05-05T17:25:02.374Z,2.72
2023-05-05T17:30:06.181Z,3.28
2023-05-05T17:35:11.159Z,2.42
2023-05-05T17:40:14.270Z,2.35
2023-05-05T17:45:17.090Z,1.27
2023-05-05T17:50:21.317Z,1.30
2023-05-05T17:55:24.071Z,1.33
2023-05-05T18:00:27.191Z,4.43
2023-05-05T18:05:31.861Z,5.32
2023-05-05T18:10:34.629Z,1.58
2023-05-05T18:15:37.395Z,3.38
2023-05-05T18:20:41.536Z,3.10
2023-05-05T18:25:44.291Z,3.95
2023-05-05T18:30:47.190Z,3.67
2023-05-05T18:35:51.940Z,3.45
2023-05-05T18:40:54.721Z,8.38
2023-05-05T18:45:57.566Z,8.25
2023-05-05T18:51:03.720Z,8.63
2023-05-05T18:56:06.562Z,6.82
2023-05-05T19:01:09.355Z,4.15
2023-05-05T19:06:13.486Z,7.40
2023-05-05T19:11:16.295Z,11.05
2023-05-05T19:16:19.502Z,8.30
2023-05-05T19:21:23.847Z,5.50
2023-05-05T19:26:26.885Z,5.60
2023-05-05T19:31:30.958Z,6.38
2023-05-05T19:36:35.699Z,8.25
2023-05-05T19:41:38.440Z,6.82
2023-05-05T19:46:41.321Z,6.18
2023-05-05T19:51:47.558Z,6.20
2023-05-05T19:56:50.355Z,7.60
2023-05-05T20:01:53.168Z,12.10
2023-05-05T20:06:57.338Z,8.65
2023-05-05T20:12:00.214Z,8.45
2023-05-05T20:17:03.031Z,9.73
2023-05-05T20:22:07.190Z,10.90
2023-05-05T20:27:10.036Z,11.20
2023-05-05T20:32:12.825Z,11.35
2023-05-05T20:37:17.043Z,13.48
2023-05-05T20:42:19.883Z,12.60
2023-05-05T20:47:22.719Z,11.32
2023-05-05T20:59:27.837Z,15.63
2023-05-05T21:04:30.624Z,16.60
2023-05-05T21:09:35.221Z,15.32
2023-05-05T21:14:43.971Z,20.88
2023-05-05T21:19:46.712Z,21.02
2023-05-05T21:24:49.458Z,21.38
2023-05-05T21:29:53.519Z,20.98
2023-05-05T21:34:56.193Z,22.15
2023-05-05T21:45:02.928Z,25.67
2023-05-05T21:50:06.167Z,26.50
2023-05-05T21:55:10.875Z,28.35
2023-05-05T22:00:16.880Z,27.88
2023-05-05T22:05:19.889Z,25.05
2023-05-05T22:10:22.651Z,23.95
2023-05-05T22:15:32.665Z,22.42
2023-05-05T22:20:39.012Z,22.55
2023-05-05T22:25:41.756Z,22.27
2023-05-05T22:30:45.971Z,22.98
2023-05-05T22:35:48.865Z,24.13
2023-05-05T22:40:51.725Z,25.02
2023-05-05T22:45:55.851Z,27.50
2023-05-05T22:50:58.807Z,31.10
2023-05-05T22:56:01.643Z,26.13
2023-05-05T23:01:05.803Z,24.45
2023-05-05T23:06:08.701Z,26.17
2023-05-05T23:11:11.566Z,27.35
2023-05-05T23:16:15.748Z,25.05
2023-05-05T23:21:18.582Z,25.17
2023-05-05T23:26:21.384Z,25.27
2023-05-05T23:31:25.708Z,24.70
2023-05-05T23:36:29.037Z,25.92
2023-05-05T23:41:31.764Z,29.77
2023-05-05T23:46:36.024Z,25.58
2023-05-05T23:51:39.014Z,24.23
2023-05-05T23:56:42.626Z,26.58
